createdAt,value
2022-08-18T00:00:55.435Z,503.00
2022-08-18T00:05:53.614Z,501.00
2022-08-18T00:10:53.733Z,500.00
2022-08-18T00:15:51.870Z,503.00
2022-08-18T00:20:51.217Z,508.00
2022-08-18T00:25:50.348Z,515.00
2022-08-18T00:30:49.493Z,492.00
2022-08-18T00:35:49.779Z,493.00
2022-08-18T00:40:48.925Z,494.00
2022-08-18T00:45:48.261Z,492.00
2022-08-18T00:50:46.397Z,510.00
2022-08-18T00:55:53.071Z,464.00
2022-08-18T01:00:44.792Z,501.00
2022-08-18T01:05:43.960Z,496.00
2022-08-18T01:10:44.086Z,484.00
2022-08-18T01:15:42.392Z,494.00
2022-08-18T01:20:42.750Z,490.00
2022-08-18T01:25:40.862Z,499.00
2022-08-18T01:30:42.187Z,513.00
2022-08-18T01:35:41.902Z,511.00
2022-08-18T01:41:24.148Z,516.00
2022-08-18T01:45:36.997Z,517.00
2022-08-18T01:50:38.156Z,514.00
2022-08-18T01:55:36.365Z,506.00
2022-08-18T02:00:36.503Z,529.00
2022-08-18T02:05:34.814Z,519.00
2022-08-18T02:10:34.118Z,515.00
2022-08-18T02:15:33.325Z,515.00
2022-08-18T02:20:32.478Z,522.00
2022-08-18T02:25:32.690Z,534.00
2022-08-18T02:30:31.829Z,524.00
2022-08-18T02:35:29.955Z,529.00
2022-08-18T02:40:29.280Z,511.00
2022-08-18T02:45:29.598Z,517.00
2022-08-18T02:50:27.879Z,529.00
2022-08-18T02:55:27.224Z,527.00
2022-08-18T03:00:29.533Z,528.00
2022-08-18T03:05:26.645Z,523.00
2022-08-18T03:10:32.628Z,510.00
2022-08-18T03:15:24.136Z,527.00
2022-08-18T03:20:30.592Z,513.00
2022-08-18T03:25:24.617Z,526.00
2022-08-18T03:30:22.904Z,517.00
2022-08-18T03:35:21.228Z,534.00
2022-08-18T03:40:22.387Z,518.00
2022-08-18T03:45:19.505Z,516.00
2022-08-18T03:50:18.861Z,514.00
2022-08-18T03:55:18.185Z,519.00
2022-08-18T04:00:19.469Z,512.00
2022-08-18T04:05:16.749Z,495.00
2022-08-18T04:10:19.460Z,494.00
2022-08-18T04:15:17.291Z,528.00
2022-08-18T04:20:14.624Z,472.00
2022-08-18T04:25:14.974Z,497.00
2022-08-18T04:30:14.225Z,536.00
2022-08-18T04:35:14.255Z,481.00
2022-08-18T04:40:12.830Z,551.00
2022-08-18T04:45:10.904Z,521.00
2022-08-18T04:50:11.247Z,471.00
2022-08-18T04:55:10.359Z,533.00
2022-08-18T05:00:08.664Z,511.00
2022-08-18T05:05:08.020Z,478.00
2022-08-18T05:10:08.114Z,493.00
2022-08-18T05:15:07.462Z,483.00
2022-08-18T05:20:06.778Z,491.00
2022-08-18T08:44:14.759Z,568.00
2022-08-18T08:49:14.077Z,520.00
2022-08-18T08:54:13.375Z,498.00
2022-08-18T08:59:14.658Z,518.00
2022-08-18T09:04:11.951Z,521.00
2022-08-18T09:09:12.232Z,487.00
2022-08-18T09:14:11.566Z,520.00
2022-08-18T09:19:10.887Z,482.00
2022-08-18T09:24:10.163Z,496.00
2022-08-18T09:29:08.440Z,505.00
2022-08-18T09:34:10.663Z,497.00
2022-08-18T09:39:06.979Z,514.00
2022-08-18T09:44:07.240Z,485.00
2022-08-18T09:49:05.388Z,502.00
2022-08-18T09:54:06.725Z,533.00
2022-08-18T09:59:10.904Z,518.00
2022-08-18T10:04:05.023Z,528.00
2022-08-18T10:09:02.312Z,480.00
2022-08-18T10:14:02.486Z,519.00
2022-08-18T10:19:00.702Z,502.00
2022-08-18T10:24:31.699Z,510.00
2022-08-18T10:29:01.140Z,458.00
2022-08-18T10:33:59.318Z,489.00
2022-08-18T10:38:57.410Z,471.00
2022-08-18T10:43:58.864Z,494.00
2022-08-18T10:48:57.983Z,493.00
2022-08-18T10:53:55.240Z,486.00
2022-08-18T10:58:57.468Z,499.00
2022-08-18T11:03:55.595Z,474.00
2022-08-18T11:08:55.400Z,481.00
2022-08-18T11:13:56.907Z,479.00
2022-08-18T11:18:52.880Z,487.00
2022-08-18T11:23:50.347Z,485.00
2022-08-18T11:28:50.633Z,481.00
2022-08-18T11:33:51.248Z,496.00
2022-08-18T11:38:49.161Z,503.00
2022-08-18T11:43:50.731Z,483.00
2022-08-18T11:48:53.710Z,496.00
2022-08-18T11:53:45.795Z,480.00
2022-08-18T11:58:44.950Z,501.00
2022-08-18T12:03:45.250Z,478.00
2022-08-18T12:08:57.204Z,487.00
2022-08-18T12:13:42.750Z,482.00
2022-08-18T12:18:42.082Z,493.00
2022-08-18T12:23:49.643Z,511.00
2022-08-18T12:28:41.584Z,496.00
2022-08-18T12:38:40.139Z,502.00
2022-08-18T12:43:38.547Z,542.00
2022-08-18T12:48:39.677Z,547.00
2022-08-18T12:53:59.503Z,575.00
2022-08-18T12:58:36.419Z,517.00
2022-08-18T13:03:52.801Z,520.00
2022-08-18T13:08:48.152Z,484.00
2022-08-18T13:13:33.754Z,477.00
2022-08-18T13:18:32.958Z,500.00
2022-08-18T13:23:32.741Z,486.00
2022-08-18T13:28:35.749Z,481.00
2022-08-18T13:33:53.680Z,583.00
2022-08-18T13:38:29.787Z,518.00
2022-08-18T13:43:28.955Z,634.00
2022-08-18T13:48:27.077Z,509.00
2022-08-18T13:53:27.570Z,473.00
2022-08-18T13:58:27.628Z,547.00
2022-08-18T14:03:42.469Z,569.00
2022-08-18T14:08:25.974Z,498.00
2022-08-18T14:13:24.716Z,490.00
2022-08-18T14:18:29.094Z,507.00
2022-08-18T14:23:24.566Z,499.00
2022-08-18T14:28:24.701Z,472.00
2022-08-18T14:33:20.838Z,477.00
2022-08-18T14:38:19.008Z,480.00
2022-08-18T14:43:20.373Z,494.00
2022-08-18T14:48:20.555Z,555.00
2022-08-18T14:53:18.840Z,525.00
2022-08-18T14:58:18.965Z,538.00
2022-08-18T15:03:16.254Z,586.00
2022-08-18T15:08:17.616Z,618.00
2022-08-18T15:13:15.717Z,614.00
2022-08-18T15:18:13.974Z,602.00
2022-08-18T15:23:14.282Z,596.00
2022-08-18T15:28:16.281Z,539.00
2022-08-18T15:33:11.892Z,577.00
2022-08-18T15:38:11.238Z,579.00
2022-08-18T15:43:10.665Z,568.00
2022-08-18T15:48:09.560Z,558.00
2022-08-18T15:53:09.820Z,550.00
2022-08-18T15:58:10.854Z,543.00
2022-08-18T16:03:08.977Z,541.00
2022-08-18T16:08:06.578Z,550.00
2022-08-18T16:13:05.744Z,544.00
2022-08-18T16:18:04.863Z,538.00
2022-08-18T16:23:06.001Z,533.00
2022-08-18T16:28:04.351Z,536.00
2022-08-18T16:33:03.513Z,586.00
2022-08-18T16:38:01.794Z,631.00
2022-08-18T16:43:01.113Z,601.00
2022-08-18T16:47:59.399Z,583.00
2022-08-18T16:52:58.696Z,548.00
2022-08-18T16:57:59.020Z,541.00
2022-08-18T17:02:58.365Z,519.00
2022-08-18T17:07:56.523Z,527.00
2022-08-18T17:13:00.740Z,550.00
2022-08-18T17:17:56.904Z,578.00
2022-08-18T17:22:55.234Z,613.00
2022-08-18T17:27:54.555Z,622.00
2022-08-18T17:32:54.305Z,604.00
2022-08-18T17:37:53.133Z,590.00
2022-08-18T17:42:51.697Z,596.00
2022-08-18T17:47:51.588Z,593.00
2022-08-18T17:52:53.409Z,580.00
2022-08-18T17:57:56.458Z,570.00
2022-08-18T18:02:50.048Z,593.00
2022-08-18T18:07:48.443Z,590.00
2022-08-18T18:12:47.618Z,598.00
2022-08-18T18:17:47.760Z,587.00
2022-08-18T18:22:46.533Z,607.00
2022-08-18T18:27:47.253Z,615.00
2022-08-18T18:32:45.666Z,602.00
2022-08-18T18:37:43.591Z,603.00
2022-08-18T18:42:43.870Z,641.00
2022-08-18T19:09:40.251Z,586.00
2022-08-18T19:14:38.540Z,528.00
2022-08-18T19:19:39.359Z,518.00
2022-08-18T19:24:37.221Z,526.00
2022-08-18T19:29:36.305Z,518.00
2022-08-18T19:34:36.624Z,534.00
2022-08-18T19:39:38.969Z,517.00
2022-08-18T19:44:34.005Z,507.00
2022-08-18T19:49:35.332Z,498.00
2022-08-18T19:54:33.576Z,503.00
2022-08-18T19:59:35.253Z,509.00
2022-08-18T20:04:32.066Z,508.00
2022-08-18T20:09:30.400Z,515.00
2022-08-18T20:14:30.694Z,549.00
2022-08-18T20:19:29.030Z,537.00
2022-08-18T20:24:28.413Z,546.00
2022-08-18T20:29:28.498Z,536.00
2022-08-18T20:34:26.806Z,541.00
2022-08-18T20:39:28.633Z,555.00
2022-08-18T20:44:29.377Z,511.00
2022-08-18T20:49:24.563Z,518.00
2022-08-18T20:54:23.821Z,522.00
2022-08-18T20:59:22.911Z,516.00
2022-08-18T21:04:22.217Z,505.00
2022-08-18T21:09:26.676Z,536.00
2022-08-18T21:14:20.786Z,545.00
2022-08-18T21:19:19.983Z,554.00
2022-08-18T21:24:19.300Z,545.00
2022-08-18T21:29:18.610Z,543.00
2022-08-18T21:34:18.950Z,547.00
2022-08-18T21:39:17.267Z,528.00
2022-08-18T21:44:17.435Z,535.00
2022-08-18T21:49:15.793Z,741.00
2022-08-18T21:54:15.902Z,724.00
2022-08-18T21:59:16.207Z,541.00
2022-08-18T22:04:14.512Z,507.00
2022-08-18T22:09:12.890Z,488.00
2022-08-18T22:14:13.003Z,519.00
2022-08-18T22:19:12.370Z,516.00
2022-08-18T22:24:10.618Z,532.00
2022-08-18T22:29:09.871Z,497.00
2022-08-18T22:34:10.157Z,548.00
2022-08-18T22:39:09.422Z,520.00
2022-08-18T22:44:07.736Z,507.00
2022-08-18T22:49:07.054Z,527.00
2022-08-18T22:54:06.380Z,523.00
2022-08-18T22:59:15.572Z,522.00
2022-08-18T23:04:05.875Z,529.00
2022-08-18T23:09:06.189Z,524.00
2022-08-18T23:14:03.518Z,521.00
2022-08-18T23:19:03.713Z,543.00
2022-08-18T23:24:03.886Z,531.00
2022-08-18T23:29:00.013Z,540.00
2022-08-18T23:34:00.141Z,558.00
2022-08-18T23:39:00.475Z,560.00
2022-08-18T23:43:59.710Z,562.00
2022-08-18T23:48:56.892Z,550.00
2022-08-18T23:53:59.198Z,528.00
2022-08-18T23:58:57.523Z,548.00
